Time;durP1;ratioP1;P1;durP2;ratioP2;P2;SDS_P1;SDS_P2;PMS_P1;PMS_P2;Temp;Humidity;BMP_temperature;BMP_pressure;BME280_temperature;BME280_humidity;BME280_pressure;Samples;Min_cycle;Max_cycle;Signal;HPM_P1;HPM_P2
2021/10/02 00:46:30;;;;;;;29.82;20.48;;;;;;;9.65;100.00;99351.00;2162132;82;20991;-83
2021/10/02 00:49:31;;;;;;;23.52;16.40;;;;;;;9.64;100.00;99345.94;2137299;82;21049;-83
2021/10/02 00:52:31;;;;;;;22.48;15.43;;;;;;;9.60;100.00;99334.13;2161997;82;20983;-83
2021/10/02 00:55:32;;;;;;;26.10;17.50;;;;;;;9.60;100.00;99334.13;2162528;82;21058;-83
2021/10/02 00:58:33;;;;;;;20.65;14.85;;;;;;;9.65;100.00;99337.11;2161465;82;21109;-83
2021/10/02 01:01:34;;;;;;;21.90;15.48;;;;;;;9.65;100.00;99334.00;2161998;82;20986;-83
2021/10/02 01:04:35;;;;;;;26.02;16.30;;;;;;;9.69;100.00;99333.19;2162056;82;21036;-83
2021/10/02 01:07:36;;;;;;;24.35;16.87;;;;;;;9.68;100.00;99334.98;2161838;82;21038;-83
2021/10/02 01:10:38;;;;;;;26.37;17.57;;;;;;;9.68;100.00;99332.37;2183640;81;21038;-83
2021/10/02 01:13:39;;;;;;;22.52;16.50;;;;;;;9.68;100.00;99328.45;2243616;79;21010;-83
2021/10/02 01:16:40;;;;;;;23.32;15.70;;;;;;;9.63;100.00;99329.92;2274986;78;21453;-83
2021/10/02 01:19:40;;;;;;;26.15;17.10;;;;;;;9.60;100.00;99328.91;2274947;78;21036;-83
2021/10/02 01:22:41;;;;;;;22.77;16.77;;;;;;;9.56;100.00;99327.59;2275124;78;21497;-83
2021/10/02 01:25:43;;;;;;;26.02;17.60;;;;;;;9.57;100.00;99326.62;2274914;78;21043;-83
2021/10/02 01:28:44;;;;;;;22.98;15.63;;;;;;;9.52;100.00;99327.11;2274589;78;20977;-82
2021/10/02 01:31:51;;;;;;;24.57;17.73;;;;;;;9.49;100.00;99326.58;2275018;78;21560;-83
2021/10/02 01:47:30;;;;;;;24.95;17.67;;;;;;;9.37;100.00;99316.91;2293569;77;21074;-84
2021/10/02 01:50:31;;;;;;;20.97;14.15;;;;;;;9.34;100.00;99314.62;2289855;78;21485;-83
2021/10/02 01:53:34;;;;;;;24.30;17.30;;;;;;;9.34;100.00;99318.53;2289787;78;21214;-84
2021/10/02 01:56:34;;;;;;;26.15;18.80;;;;;;;9.35;100.00;99317.06;2289977;77;21053;-83
2021/10/02 01:59:35;;;;;;;21.57;14.95;;;;;;;9.37;100.00;99320.34;2289997;77;20952;-83
2021/10/02 02:02:36;;;;;;;21.62;15.48;;;;;;;9.32;100.00;99318.67;2289828;77;21537;-83
2021/10/02 02:05:37;;;;;;;20.72;15.25;;;;;;;9.27;100.00;99316.21;2290043;77;20997;-83
2021/10/02 02:08:38;;;;;;;19.60;14.07;;;;;;;9.24;100.00;99306.08;2289837;77;21021;-84
2021/10/02 02:11:38;;;;;;;21.60;15.00;;;;;;;9.24;100.00;99305.59;2289974;77;21528;-83
2021/10/02 02:14:39;;;;;;;18.25;13.25;;;;;;;9.23;100.00;99306.54;2290065;78;21048;-83
2021/10/02 02:17:40;;;;;;;22.50;15.30;;;;;;;9.23;100.00;99303.11;2290525;77;20980;-84
2021/10/02 02:20:41;;;;;;;21.77;14.87;;;;;;;9.21;100.00;99298.05;2289928;78;20977;-84
2021/10/02 02:23:42;;;;;;;21.70;14.00;;;;;;;9.21;100.00;99282.37;2289967;77;21014;-83
2021/10/02 02:26:43;;;;;;;16.87;12.53;;;;;;;9.22;100.00;99286.61;2289489;77;21101;-83
2021/10/02 02:29:43;;;;;;;18.45;13.30;;;;;;;9.20;100.00;99290.37;2289278;77;20996;-83
2021/10/02 02:32:44;;;;;;;20.77;13.35;;;;;;;9.18;100.00;99287.92;2289494;77;21001;-83
2021/10/02 02:35:45;;;;;;;24.82;15.40;;;;;;;9.20;100.00;99282.53;2290464;77;21534;-83
2021/10/02 02:38:46;;;;;;;22.15;15.40;;;;;;;9.20;100.00;99281.22;2266514;78;21005;-83
2021/10/02 02:41:47;;;;;;;23.25;15.88;;;;;;;9.23;100.00;99279.10;2292738;78;20927;-83
2021/10/02 02:44:48;;;;;;;20.85;13.38;;;;;;;9.24;100.00;99278.64;2292715;78;20996;-84
2021/10/02 02:47:49;;;;;;;23.65;15.20;;;;;;;9.23;100.00;99270.45;2292904;78;21562;-84
2021/10/02 02:50:50;;;;;;;25.82;17.17;;;;;;;9.25;100.00;99273.75;2292812;78;20926;-83
2021/10/02 02:53:52;;;;;;;21.23;15.08;;;;;;;9.26;100.00;99274.89;2292743;78;21001;-84
2021/10/02 02:56:53;;;;;;;23.98;16.80;;;;;;;9.26;100.00;99274.89;2292549;78;21040;-83
2021/10/02 02:59:56;;;;;;;23.22;16.40;;;;;;;9.27;100.00;99277.02;2292921;78;21616;-84
2021/10/02 03:02:56;;;;;;;24.30;15.45;;;;;;;9.29;100.00;99269.83;2292991;78;20989;-83
2021/10/02 03:05:57;;;;;;;20.70;14.03;;;;;;;9.29;100.00;99274.56;2293025;78;20994;-83
2021/10/02 03:08:58;;;;;;;19.70;13.90;;;;;;;9.28;100.00;99276.85;2292865;78;20973;-83
2021/10/02 03:11:59;;;;;;;22.48;13.90;;;;;;;9.26;100.00;99274.89;2292734;78;21494;-83
2021/10/02 03:15:00;;;;;;;22.17;14.13;;;;;;;9.26;100.00;99279.30;2292649;78;20993;-83
2021/10/02 03:18:01;;;;;;;25.02;14.53;;;;;;;9.24;100.00;99283.87;2292956;78;20981;-83
2021/10/02 03:21:02;;;;;;;22.15;14.25;;;;;;;9.19;100.00;99272.56;2292849;78;21010;-84
2021/10/02 03:24:02;;;;;;;24.20;16.70;;;;;;;9.19;100.00;99271.27;2292907;78;21023;-84
2021/10/02 03:27:03;;;;;;;34.83;23.87;;;;;;;9.21;100.00;99274.53;2293103;78;20950;-83
2021/10/02 03:30:04;;;;;;;34.30;22.75;;;;;;;9.19;100.00;99275.18;2293133;78;20977;-83
2021/10/02 03:33:05;;;;;;;25.48;17.52;;;;;;;9.21;100.00;99271.91;2292940;78;21510;-83
2021/10/02 03:36:07;;;;;;;24.20;16.42;;;;;;;9.24;100.00;99276.03;2292814;78;21021;-83
2021/10/02 03:39:08;;;;;;;20.52;14.38;;;;;;;9.19;100.00;99266.52;2293133;78;20957;-83
2021/10/02 03:42:10;;;;;;;27.17;17.35;;;;;;;9.17;100.00;99265.88;2292835;78;20954;-83
2021/10/02 03:45:10;;;;;;;24.65;17.15;;;;;;;9.16;100.00;99270.77;2292990;78;20988;-83
2021/10/02 03:48:11;;;;;;;27.62;18.00;;;;;;;9.16;100.00;99269.47;2293004;77;21488;-84
2021/10/02 03:51:12;;;;;;;28.92;19.20;;;;;;;9.15;100.00;99269.95;2293589;78;20965;-83
2021/10/02 03:54:13;;;;;;;28.98;18.12;;;;;;;9.15;100.00;99265.22;2292937;78;20977;-84
2021/10/02 03:57:14;;;;;;;20.05;14.60;;;;;;;9.17;100.00;99267.17;2292979;78;20986;-84
2021/10/02 04:00:14;;;;;;;23.90;16.67;;;;;;;9.19;100.00;99267.83;2292965;78;21016;-84
2021/10/02 04:03:15;;;;;;;27.52;18.80;;;;;;;9.19;100.00;99267.83;2293016;78;20954;-84
2021/10/02 04:06:16;;;;;;;29.27;20.08;;;;;;;9.19;100.00;99263.91;2292931;78;21039;-84
2021/10/02 04:09:17;;;;;;;25.17;16.05;;;;;;;9.19;100.00;99266.52;2292846;78;21020;-84
2021/10/02 04:12:18;;;;;;;33.83;22.52;;;;;;;9.17;100.00;99263.26;2293120;77;20968;-84
2021/10/02 04:15:18;;;;;;;30.50;19.20;;;;;;;9.19;100.00;99267.34;2292852;78;21013;-84
2021/10/02 04:18:19;;;;;;;28.38;16.27;;;;;;;9.19;100.00;99265.22;2293001;78;21013;-84
2021/10/02 04:21:20;;;;;;;21.90;15.48;;;;;;;9.15;100.00;99262.11;2293643;77;20954;-84
2021/10/02 04:24:23;;;;;;;22.42;14.78;;;;;;;9.13;100.00;99269.27;2292983;78;20999;-84
2021/10/02 04:27:24;;;;;;;21.70;14.90;;;;;;;9.10;100.00;99269.10;2292649;78;21032;-83
2021/10/02 04:30:24;;;;;;;26.35;16.52;;;;;;;9.06;100.00;99264.36;2292498;77;21496;-83
2021/10/02 04:33:25;;;;;;;25.17;16.80;;;;;;;9.01;100.00;99266.12;2292397;78;20946;-83
2021/10/02 04:36:26;;;;;;;24.85;16.62;;;;;;;8.97;100.00;99266.11;2292367;78;21001;-83
2021/10/02 04:39:27;;;;;;;26.07;17.52;;;;;;;8.94;100.00;99262.97;2292167;78;20989;-83
2021/10/02 04:42:28;;;;;;;28.25;18.95;;;;;;;8.89;100.00;99258.23;2291724;78;21433;-83
2021/10/02 04:45:29;;;;;;;26.82;17.45;;;;;;;8.86;100.00;99255.91;2291956;78;20974;-83
2021/10/02 04:48:29;;;;;;;30.57;19.50;;;;;;;8.83;100.00;99247.91;2292332;78;20962;-83
2021/10/02 04:51:30;;;;;;;28.55;18.07;;;;;;;8.78;100.00;99250.67;2292216;78;20965;-83
2021/10/02 04:54:31;;;;;;;25.60;18.05;;;;;;;8.77;100.00;99255.53;2292018;78;21489;-83
2021/10/02 04:57:32;;;;;;;39.75;24.20;;;;;;;8.76;100.00;99254.72;2292088;78;21037;-83
2021/10/02 05:00:33;;;;;;;39.63;25.02;;;;;;;8.78;100.00;99254.59;2292117;78;21021;-83
2021/10/02 05:03:34;;;;;;;33.55;22.85;;;;;;;8.80;100.00;99255.24;2292019;78;21441;-83
2021/10/02 05:06:34;;;;;;;28.42;18.67;;;;;;;8.82;100.00;99253.29;2292136;78;21064;-83
2021/10/02 05:09:36;;;;;;;24.80;17.37;;;;;;;8.86;100.00;99257.22;2292153;78;20973;-83
2021/10/02 05:12:37;;;;;;;21.97;14.83;;;;;;;8.91;100.00;99256.77;2291994;77;21541;-83
2021/10/02 05:15:38;;;;;;;24.82;16.70;;;;;;;8.92;100.00;99256.60;2291989;78;21262;-83
2021/10/02 05:18:39;;;;;;;23.07;15.10;;;;;;;8.94;100.00;99252.53;2291968;78;20949;-83
2021/10/02 05:21:40;;;;;;;25.97;15.78;;;;;;;8.92;100.00;99248.77;2292094;77;20968;-83
2021/10/02 05:24:40;;;;;;;24.20;16.87;;;;;;;8.93;100.00;99243.88;2292125;78;21069;-83
2021/10/02 05:27:41;;;;;;;25.43;17.27;;;;;;;8.89;100.00;99236.03;2292068;78;20926;-83
2021/10/02 05:30:42;;;;;;;23.00;16.37;;;;;;;8.85;100.00;99233.39;2291973;78;21563;-82
2021/10/02 05:33:43;;;;;;;18.45;13.28;;;;;;;8.83;100.00;99236.64;2292056;78;21492;-84
2021/10/02 05:36:44;;;;;;;19.05;13.03;;;;;;;8.85;100.00;99237.30;2292188;78;21509;-83
2021/10/02 05:39:45;;;;;;;24.27;16.00;;;;;;;8.91;100.00;99235.88;2292669;78;20994;-85
2021/10/02 05:42:46;;;;;;;21.70;16.23;;;;;;;8.96;100.00;99237.05;2292631;78;21040;-84
2021/10/02 05:45:47;;;;;;;19.75;13.50;;;;;;;9.00;100.00;99227.91;2292814;78;21568;-85
2021/10/02 05:48:48;;;;;;;19.37;13.68;;;;;;;9.08;100.00;99233.67;2292522;78;21517;-85
2021/10/02 05:51:48;;;;;;;15.30;12.20;;;;;;;9.13;100.00;99227.47;2292538;78;20984;-84
2021/10/02 05:54:49;;;;;;;16.82;12.18;;;;;;;9.21;100.00;99236.64;2292655;78;21477;-84
2021/10/02 05:57:50;;;;;;;13.70;11.40;;;;;;;9.27;100.00;99242.55;2293413;78;21024;-84
2021/10/02 06:00:51;;;;;;;14.58;11.55;;;;;;;9.34;100.00;99242.26;2292718;77;20974;-84
2021/10/02 06:03:52;;;;;;;12.58;10.32;;;;;;;9.38;100.00;99242.25;2292769;78;20997;-84
2021/10/02 06:06:53;;;;;;;14.07;11.10;;;;;;;9.45;100.00;99236.41;2292622;78;21065;-83
2021/10/02 06:09:53;;;;;;;14.40;11.28;;;;;;;9.49;100.00;99239.02;2292765;78;21473;-83
2021/10/02 06:12:54;;;;;;;13.72;11.18;;;;;;;9.53;100.00;99239.86;2292647;77;20988;-84
2021/10/02 06:15:55;;;;;;;14.15;11.10;;;;;;;9.60;100.00;99240.86;2292627;77;21022;-84
2021/10/02 06:18:56;;;;;;;15.45;11.97;;;;;;;9.66;100.00;99242.81;2292749;78;20957;-83
2021/10/02 06:21:59;;;;;;;17.37;11.85;;;;;;;9.75;100.00;99227.95;2292691;78;20922;-84
2021/10/02 06:24:59;;;;;;;15.63;11.80;;;;;;;9.78;100.00;99234.66;2292773;77;20970;-83
2021/10/02 06:28:00;;;;;;;18.32;13.75;;;;;;;9.76;100.00;99240.54;2292810;78;20985;-83
2021/10/02 06:31:01;;;;;;;15.83;12.20;;;;;;;9.81;100.00;99239.09;2292921;78;20966;-84
2021/10/02 06:34:02;;;;;;;13.72;11.33;;;;;;;9.94;100.00;99234.19;2292702;77;21508;-86
2021/10/02 06:37:03;;;;;;;16.00;12.88;;;;;;;10.12;100.00;99229.28;2292207;78;20981;-85
2021/10/02 06:40:04;;;;;;;21.33;15.03;;;;;;;10.29;100.00;99232.26;2292772;78;20992;-88
2021/10/02 06:43:05;;;;;;;15.03;11.40;;;;;;;10.59;100.00;99222.87;2292621;78;20993;-86
2021/10/02 06:46:05;;;;;;;14.65;11.73;;;;;;;10.94;100.00;99233.92;2292744;78;21033;-87
2021/10/02 06:49:06;;;;;;;11.60;10.03;;;;;;;11.23;100.00;99226.26;2292758;78;21033;-83
2021/10/02 06:52:07;;;;;;;12.50;11.05;;;;;;;11.40;100.00;99223.88;2292680;78;20973;-84
2021/10/02 06:55:08;;;;;;;14.05;11.20;;;;;;;11.48;100.00;99229.58;2292770;78;20974;-87
2021/10/02 06:58:09;;;;;;;11.38;10.05;;;;;;;11.54;100.00;99229.40;2292620;77;20997;-86
2021/10/02 07:01:10;;;;;;;12.40;10.53;;;;;;;11.64;100.00;99237.36;2292419;78;20934;-86
2021/10/02 07:04:14;;;;;;;10.20;9.15;;;;;;;11.76;100.00;99234.33;2292590;78;20988;-89
2021/10/02 07:07:15;;;;;;;11.22;9.83;;;;;;;11.86;100.00;99227.89;2295324;78;20975;-91
2021/10/02 07:10:17;;;;;;;11.75;10.55;;;;;;;11.94;100.00;99236.20;2294724;78;20959;-90
2021/10/02 07:13:18;;;;;;;13.10;10.20;;;;;;;11.93;100.00;99228.83;2293099;77;20992;-90
2021/10/02 07:16:21;;;;;;;11.60;9.75;;;;;;;11.91;100.00;99228.69;2292568;78;20985;-89
2021/10/02 07:19:22;;;;;;;11.00;9.43;;;;;;;11.92;100.00;99235.56;2292717;78;21030;-91
2021/10/02 07:22:23;;;;;;;11.93;9.03;;;;;;;11.92;100.00;99237.69;2292995;78;21024;-88
2021/10/02 07:25:25;;;;;;;8.70;7.12;;;;;;;11.95;100.00;99239.95;2292832;78;21002;-85
2021/10/02 07:28:26;;;;;;;11.22;7.75;;;;;;;12.03;100.00;99239.08;2292658;78;21004;-86
2021/10/02 07:31:27;;;;;;;8.95;8.15;;;;;;;12.03;100.00;99238.27;2293065;78;20938;-87
2021/10/02 07:34:27;;;;;;;8.20;7.42;;;;;;;12.09;100.00;99237.08;2292351;77;20910;-88
2021/10/02 07:37:28;;;;;;;7.42;6.65;;;;;;;12.17;100.00;99227.02;2292279;78;21017;-89
2021/10/02 07:40:29;;;;;;;8.75;7.85;;;;;;;12.23;100.00;99237.59;2292770;78;20961;-87
2021/10/02 07:43:30;;;;;;;15.48;8.48;;;;;;;12.22;100.00;99232.03;2292660;78;20985;-87
2021/10/02 07:46:31;;;;;;;13.25;10.43;;;;;;;12.25;100.00;99229.54;2292482;78;20985;-88
2021/10/02 07:49:32;;;;;;;11.55;9.28;;;;;;;12.29;100.00;99231.33;2292612;78;20984;-87
2021/10/02 07:52:33;;;;;;;10.55;9.43;;;;;;;12.31;100.00;99231.47;2292917;78;20981;-90
2021/10/02 07:55:34;;;;;;;9.68;8.68;;;;;;;12.31;100.00;99231.47;2293282;78;20927;-88
2021/10/02 07:58:34;;;;;;;8.95;7.72;;;;;;;12.41;100.00;99237.28;2293530;78;21009;-87
2021/10/02 08:01:35;;;;;;;11.50;8.40;;;;;;;12.50;100.00;99230.14;2292931;78;21026;-89
2021/10/02 08:04:37;;;;;;;10.00;8.93;;;;;;;12.60;100.00;99235.12;2293725;78;21606;-84
2021/10/02 08:07:38;;;;;;;9.28;8.23;;;;;;;12.65;100.00;99232.80;2293793;78;21009;-85
2021/10/02 08:10:38;;;;;;;12.75;10.38;;;;;;;12.71;100.00;99227.64;2267136;78;21044;-85
2021/10/02 08:13:39;;;;;;;9.53;8.60;;;;;;;12.78;100.00;99229.03;2292918;78;21027;-91
2021/10/02 08:16:42;;;;;;;8.68;7.87;;;;;;;12.89;100.00;99235.64;2293130;78;21520;-92
2021/10/02 08:19:43;;;;;;;8.98;7.85;;;;;;;12.96;100.00;99232.61;2292878;78;20965;-92
2021/10/02 08:22:44;;;;;;;9.65;8.23;;;;;;;12.96;100.00;99226.85;2292953;78;20985;-91
2021/10/02 08:25:47;;;;;;;8.33;7.58;;;;;;;13.03;100.00;99230.39;2292741;78;21028;-90
2021/10/02 08:28:50;;;;;;;8.90;7.92;;;;;;;13.10;100.00;99231.80;2292574;78;21540;-90
2021/10/02 08:31:50;;;;;;;9.55;8.38;;;;;;;13.19;100.00;99231.20;2292630;78;20978;-90
2021/10/02 08:34:51;;;;;;;10.15;9.15;;;;;;;13.31;100.00;99228.43;2292886;78;20982;-89
2021/10/02 08:37:51;;;;;;;7.92;7.22;;;;;;;13.38;100.00;99238.03;2292295;78;21001;-87
2021/10/02 08:40:52;;;;;;;8.25;7.37;;;;;;;13.45;100.00;99232.86;2292112;78;21016;-87
2021/10/02 08:43:53;;;;;;;9.68;7.65;;;;;;;13.50;100.00;99233.10;2292188;78;20962;-87
2021/10/02 08:46:54;;;;;;;9.08;8.20;;;;;;;13.59;100.00;99228.04;2292164;78;21060;-90
2021/10/02 08:49:55;;;;;;;7.80;7.08;;;;;;;13.70;100.00;99227.23;2292099;78;20993;-87
2021/10/02 08:52:56;;;;;;;9.13;7.97;;;;;;;13.79;100.00;99228.23;2292791;78;20969;-84
2021/10/02 08:55:57;;;;;;;8.30;7.03;;;;;;;13.85;100.00;99221.42;2292096;78;21024;-86
2021/10/02 08:58:58;;;;;;;8.95;7.25;;;;;;;13.91;100.00;99216.73;2292206;78;21004;-85
2021/10/02 09:01:58;;;;;;;8.23;7.35;;;;;;;14.01;100.00;99219.05;2292823;78;20977;-88
2021/10/02 09:04:59;;;;;;;9.73;8.30;;;;;;;14.09;100.00;99209.20;2292042;78;20965;-85
2021/10/02 09:08:00;;;;;;;8.30;7.58;;;;;;;14.19;100.00;99212.31;2292194;78;21519;-87
2021/10/02 09:11:01;;;;;;;9.03;7.20;;;;;;;14.29;100.00;99206.72;2292070;78;21004;-87
2021/10/02 09:14:04;;;;;;;7.97;6.83;;;;;;;14.39;100.00;99197.16;2291414;78;20978;-87
2021/10/02 09:17:05;;;;;;;7.90;6.97;;;;;;;14.51;100.00;99200.91;2291822;78;21001;-87
2021/10/02 09:20:06;;;;;;;8.70;6.85;;;;;;;14.61;100.00;99200.56;2291964;78;21437;-86
2021/10/02 09:23:08;;;;;;;7.28;6.65;;;;;;;14.68;100.00;99194.33;2291661;78;21025;-84
2021/10/02 09:26:09;;;;;;;7.72;7.00;;;;;;;14.77;100.00;99191.84;2292018;78;21526;-88
2021/10/02 09:29:10;;;;;;;8.55;7.75;;;;;;;14.83;100.00;99190.77;2292151;78;20973;-87
2021/10/02 09:32:11;;;;;;;8.33;7.03;;;;;;;14.89;100.00;99189.47;2292052;78;21036;-86
2021/10/02 09:35:12;;;;;;;9.30;8.33;;;;;;;15.00;100.00;99188.12;2292291;78;21420;-85
2021/10/02 09:38:13;;;;;;;12.43;8.53;;;;;;;15.13;100.00;99188.67;2292000;77;21081;-85
2021/10/02 09:41:14;;;;;;;10.85;8.85;;;;;;;15.23;100.00;99188.59;2292246;78;20985;-84
2021/10/02 09:44:15;;;;;;;9.78;8.83;;;;;;;15.32;100.00;99186.09;2292035;78;21259;-85
2021/10/02 09:47:15;;;;;;;11.00;9.45;;;;;;;15.41;100.00;99182.77;2292031;78;20931;-85
2021/10/02 09:50:16;;;;;;;10.78;9.63;;;;;;;15.55;100.00;99180.99;2292191;78;21501;-87
2021/10/02 09:53:17;;;;;;;12.53;9.23;;;;;;;15.67;100.00;99178.09;2291935;78;21480;-87
2021/10/02 09:56:18;;;;;;;12.65;9.55;;;;;;;15.76;100.00;99178.71;2292084;78;21024;-87
2021/10/02 09:59:19;;;;;;;15.05;10.40;;;;;;;15.85;100.00;99174.86;2292019;78;20985;-86
2021/10/02 10:02:20;;;;;;;14.78;9.95;;;;;;;15.92;100.00;99177.00;2292019;78;20988;-87
2021/10/02 10:05:21;;;;;;;12.98;10.23;;;;;;;16.00;100.00;99173.33;2291598;78;21001;-87
2021/10/02 10:08:26;;;;;;;11.28;10.08;;;;;;;16.08;100.00;99175.77;2292028;78;20974;-87
2021/10/02 10:11:24;;;;;;;14.25;10.82;;;;;;;16.18;100.00;99170.87;2291339;78;21061;-87
2021/10/02 10:14:25;;;;;;;13.80;10.80;;;;;;;16.27;100.00;99162.23;2292034;78;21020;-87
2021/10/02 10:17:29;;;;;;;15.45;11.43;;;;;;;16.36;100.00;99159.69;2292164;78;20985;-88
2021/10/02 10:20:29;;;;;;;12.58;11.20;;;;;;;16.45;100.00;99161.91;2291499;78;21060;-88
2021/10/02 10:23:29;;;;;;;16.02;13.90;;;;;;;16.55;100.00;99152.25;2291922;78;20961;-89
2021/10/02 10:26:30;;;;;;;13.90;12.40;;;;;;;16.65;100.00;99149.98;2291871;78;21001;-88
2021/10/02 10:29:32;;;;;;;13.88;11.68;;;;;;;16.77;100.00;99156.27;2291548;78;21069;-88
2021/10/02 10:32:33;;;;;;;13.15;10.88;;;;;;;16.89;100.00;99151.14;2292016;78;20997;-86
2021/10/02 10:35:34;;;;;;;12.55;11.22;;;;;;;17.05;100.00;99153.83;2291792;78;20970;-88
2021/10/02 10:38:35;;;;;;;12.93;10.82;;;;;;;17.14;100.00;99153.89;2291453;77;21124;-87
2021/10/02 10:41:36;;;;;;;18.20;11.93;;;;;;;17.18;100.00;99151.62;2291914;78;21049;-89
2021/10/02 10:44:37;;;;;;;13.88;12.03;;;;;;;17.26;100.00;99144.76;2291848;78;20954;-88
2021/10/02 10:47:38;;;;;;;14.68;13.08;;;;;;;17.38;100.00;99144.41;2291962;78;21052;-89
2021/10/02 10:50:39;;;;;;;16.07;13.78;;;;;;;17.57;100.00;99146.63;2291998;78;20993;-88
2021/10/02 10:53:40;;;;;;;18.50;14.38;;;;;;;17.72;100.00;99143.17;2292614;78;20914;-89
2021/10/02 10:56:41;;;;;;;16.70;14.65;;;;;;;17.88;100.00;99141.31;2292089;78;21013;-89
2021/10/02 10:59:42;;;;;;;14.35;12.85;;;;;;;18.09;100.00;99125.54;2291992;78;20981;-88
2021/10/02 11:02:42;;;;;;;18.50;14.55;;;;;;;18.25;100.00;99118.88;2292183;78;21449;-88
2021/10/02 11:05:43;;;;;;;15.20;12.70;;;;;;;18.43;100.00;99119.41;2291803;78;20961;-90
2021/10/02 11:08:44;;;;;;;15.40;13.13;;;;;;;18.54;100.00;99123.16;2291768;78;20996;-87
2021/10/02 11:11:45;;;;;;;14.68;13.20;;;;;;;18.60;99.12;99119.12;2291550;78;20969;-86
2021/10/02 11:14:46;;;;;;;21.00;14.98;;;;;;;18.69;98.78;99116.49;2291635;78;20946;-85
2021/10/02 11:17:47;;;;;;;27.98;19.15;;;;;;;18.88;97.90;99111.17;2291492;78;21516;-84
2021/10/02 11:20:48;;;;;;;24.02;18.02;;;;;;;19.06;97.77;99109.81;2291905;78;21489;-84
2021/10/02 11:23:50;;;;;;;16.80;15.03;;;;;;;19.16;97.38;99119.36;2292098;78;21532;-83
2021/10/02 11:26:50;;;;;;;20.17;17.85;;;;;;;19.30;94.52;99112.84;2292330;77;21603;-84
2021/10/02 11:29:51;;;;;;;20.32;17.40;;;;;;;19.37;96.08;99114.06;2292251;78;20985;-85
2021/10/02 11:32:52;;;;;;;19.10;16.95;;;;;;;19.42;95.34;99114.72;2291890;78;21001;-83
2021/10/02 11:35:53;;;;;;;17.85;14.50;;;;;;;19.52;94.88;99115.78;2291838;78;20969;-85
2021/10/02 11:38:54;;;;;;;14.78;12.50;;;;;;;19.68;94.36;99113.03;2292360;78;21001;-85
2021/10/02 11:41:55;;;;;;;14.98;13.30;;;;;;;19.85;92.92;99102.54;2292884;78;21441;-84
2021/10/02 11:44:56;;;;;;;14.87;12.88;;;;;;;20.01;91.28;99107.14;2292860;78;20918;-87
2021/10/02 11:47:57;;;;;;;12.53;11.12;;;;;;;20.11;90.11;99108.70;2292876;78;21033;-84
2021/10/02 11:50:57;;;;;;;23.98;18.80;;;;;;;20.13;88.20;99096.53;2292908;78;21017;-84
2021/10/02 11:53:58;;;;;;;31.52;20.55;;;;;;;20.16;86.88;99104.03;2292841;78;21056;-84
2021/10/02 11:56:59;;;;;;;18.57;14.68;;;;;;;20.23;87.56;99107.91;2292723;78;21034;-85
2021/10/02 12:00:00;;;;;;;16.65;13.43;;;;;;;20.32;86.64;99105.99;2292813;78;20965;-84
2021/10/02 12:03:01;;;;;;;12.80;11.55;;;;;;;20.36;86.54;99097.83;2292743;78;20984;-85
2021/10/02 12:06:02;;;;;;;15.32;13.65;;;;;;;20.40;83.29;99106.97;2292460;78;21045;-85
2021/10/02 12:09:04;;;;;;;20.27;14.78;;;;;;;20.44;83.94;99100.16;2292601;78;21571;-85
2021/10/02 12:12:06;;;;;;;16.73;14.93;;;;;;;20.39;82.33;99104.02;2292683;78;21044;-85
2021/10/02 12:15:08;;;;;;;27.32;20.08;;;;;;;20.34;81.27;99097.25;2292413;78;21613;-87
2021/10/02 12:18:08;;;;;;;21.77;16.93;;;;;;;20.36;81.40;99093.84;2293021;78;21001;-87
2021/10/02 12:21:09;;;;;;;21.70;16.42;;;;;;;20.40;80.29;99098.19;2292816;78;21448;-85
2021/10/02 12:24:10;;;;;;;23.07;16.80;;;;;;;20.45;79.97;99098.30;2292571;78;21672;-86
2021/10/02 12:27:14;;;;;;;40.45;25.23;;;;;;;20.48;79.87;99100.48;2292625;78;20982;-83
2021/10/02 12:30:14;;;;;;;35.38;24.57;;;;;;;20.52;78.61;99098.19;2292617;77;21013;-84
2021/10/02 12:33:14;;;;;;;26.52;18.45;;;;;;;20.52;78.45;99093.67;2276478;78;21084;-86
2021/10/02 12:36:15;;;;;;;40.67;23.98;;;;;;;20.51;77.76;99096.58;2247933;79;20995;-88
2021/10/02 12:39:18;;;;;;;30.08;19.20;;;;;;;20.49;76.64;99094.67;2235412;78;21818;-84
2021/10/02 12:42:19;;;;;;;35.20;24.65;;;;;;;20.44;77.05;99094.84;2231253;80;21000;-85
2021/10/02 12:45:19;;;;;;;28.87;21.23;;;;;;;20.33;77.33;99088.99;2246206;78;20946;-85
2021/10/02 12:48:20;;;;;;;24.80;17.65;;;;;;;20.23;76.70;99089.30;2263935;78;21036;-90
2021/10/02 12:51:21;;;;;;;18.75;14.50;;;;;;;20.09;77.31;99084.73;2229384;80;20967;-84
2021/10/02 12:54:22;;;;;;;19.32;15.48;;;;;;;20.04;77.20;99077.98;2235601;78;21041;-83
2021/10/02 12:57:22;;;;;;;14.40;12.93;;;;;;;20.00;76.87;99077.63;2223587;80;21035;-89
2021/10/02 13:00:32;;;;;;;13.83;12.05;;;;;;;19.90;76.83;99084.04;2223706;79;20952;-87
2021/10/02 13:03:28;;;;;;;13.62;12.23;;;;;;;19.81;77.62;99080.11;2222312;80;21004;-86
2021/10/02 13:06:29;;;;;;;13.15;11.75;;;;;;;19.76;77.47;99079.48;2223749;80;21048;-86
2021/10/02 13:09:30;;;;;;;16.85;12.60;;;;;;;19.68;76.23;99074.51;2223840;80;20976;-86
2021/10/02 13:12:31;;;;;;;17.77;13.60;;;;;;;19.68;77.30;99073.19;2224025;79;20960;-85
2021/10/02 13:15:32;;;;;;;24.25;16.60;;;;;;;19.64;77.27;99064.03;2224097;80;20952;-87
2021/10/02 13:18:33;;;;;;;20.10;14.85;;;;;;;19.57;76.75;99069.48;2223888;80;21467;-86
2021/10/02 13:21:34;;;;;;;18.57;13.08;;;;;;;19.51;76.35;99061.58;2223868;80;21028;-86
2021/10/02 13:24:35;;;;;;;18.77;14.35;;;;;;;19.44;76.93;99066.17;2224045;79;21459;-86
2021/10/02 13:27:35;;;;;;;23.47;17.55;;;;;;;19.36;76.98;99068.64;2224688;79;21048;-86
2021/10/02 13:30:36;;;;;;;19.95;15.35;;;;;;;19.31;76.78;99063.22;2224412;80;21031;-84
2021/10/02 13:33:37;;;;;;;15.38;11.95;;;;;;;19.30;76.61;99061.60;2223943;80;20964;-84
2021/10/02 13:36:38;;;;;;;15.20;13.55;;;;;;;19.29;76.56;99062.13;2223941;80;21524;-85
2021/10/02 13:39:39;;;;;;;24.15;16.95;;;;;;;19.25;76.77;99057.48;2228293;79;20980;-85
2021/10/02 13:42:40;;;;;;;19.25;14.38;;;;;;;19.21;76.76;99061.64;2234436;79;20975;-84
2021/10/02 13:45:41;;;;;;;15.23;13.10;;;;;;;19.16;76.25;99062.30;2275112;78;21060;-94
2021/10/02 13:48:42;;;;;;;26.40;18.23;;;;;;;19.07;76.95;99064.17;2274832;78;21069;-91
2021/10/02 13:51:43;;;;;;;26.48;17.37;;;;;;;18.97;77.00;99064.72;2274793;78;20973;-90
2021/10/02 13:54:44;;;;;;;19.40;16.50;;;;;;;18.86;77.54;99060.19;2232369;79;21635;-89
2021/10/02 13:57:45;;;;;;;20.68;15.28;;;;;;;18.78;77.62;99060.49;2275016;78;21001;-89
2021/10/02 14:00:46;;;;;;;20.23;15.25;;;;;;;18.72;77.87;99058.20;2232188;80;21029;-89
2021/10/02 14:03:46;;;;;;;17.52;14.60;;;;;;;18.69;78.30;99061.31;2274912;78;21008;-88
2021/10/02 14:06:48;;;;;;;19.75;14.70;;;;;;;18.69;78.71;99065.30;2232462;80;20997;-89
2021/10/02 14:09:49;;;;;;;27.30;19.92;;;;;;;18.70;78.94;99066.91;2274779;78;21587;-82
2021/10/02 14:12:50;;;;;;;48.85;30.25;;;;;;;18.66;78.83;99066.56;2232923;80;20943;-84
2021/10/02 14:15:51;;;;;;;50.25;31.27;;;;;;;18.65;79.04;99064.10;2274936;78;20992;-82
2021/10/02 14:18:51;;;;;;;39.38;24.40;;;;;;;18.65;79.43;99064.94;2232308;80;20989;-83
2021/10/02 14:21:54;;;;;;;29.60;19.75;;;;;;;18.65;79.58;99068.92;2246719;78;21024;-86
2021/10/02 14:24:55;;;;;;;29.67;19.48;;;;;;;18.62;79.66;99056.05;2232404;79;21562;-84
2021/10/02 14:27:56;;;;;;;23.98;16.20;;;;;;;18.60;80.02;99054.15;2274407;78;20961;-86
2021/10/02 14:30:57;;;;;;;35.58;24.98;;;;;;;18.58;80.03;99056.73;2232728;80;21535;-84
2021/10/02 14:34:02;;;;;;;28.83;21.23;;;;;;;18.55;80.17;99058.48;2275290;78;21490;-88
2021/10/02 14:37:00;;;;;;;23.98;18.17;;;;;;;18.49;79.92;99061.53;2231943;79;21013;-82
2021/10/02 14:40:01;;;;;;;23.27;17.67;;;;;;;18.44;79.83;99058.72;2268501;78;21025;-84
2021/10/02 14:43:02;;;;;;;22.58;17.40;;;;;;;18.37;80.30;99065.94;2260914;79;21045;-85
2021/10/02 14:46:03;;;;;;;27.85;17.77;;;;;;;18.29;80.45;99064.41;2260823;79;20973;-85
2021/10/02 14:49:04;;;;;;;22.07;16.60;;;;;;;18.21;80.43;99063.37;2260824;79;21639;-84